首页
METAR-TAF:

METAR-TAF

机场 :

花卷機場

花卷, 日本

纬度: 39-26N, 经度: 141-08E, 海拔: 90米

当前天气观测

该预报发布于7小时和54分钟前的10:00 UTC
风速4节,风向南转西南
温度 4°C
湿度 70%
气压 1020 hPa
能见度10公里或以上
少量云层高于3000英尺

METAR: RJSI 171000Z 21004KT 9999 FEW030 04/M01 Q1020

时间: 02:54 (17:54 UTC)


TAF: 丢失

超过4000个机场的气象观测和天气预报(METAR&TAF报告)。

可查询的气象台以黄色和红色小点在地图上表示。

将鼠标移到小点上方,可查看气象台名称。

然后点击查看天气观测和预报。

如需切换地图:点击带黑十字的绿色按钮放大地图;点击带横线的绿色按钮缩小地图;或者点击绿色箭头查看邻近地区的地图。


METAR-TAF: